Terminal Aerodrome Forecast
Issued by NWS Jacksonville, FL

Home | Current Version | Previous Version | Text Only | Print | Product List | Glossary On
Versions: 1 2 3 4 5 6 7 8 9 10 11 12 13 14 15 16 17 18 19
000
FTUS42 KJAX 220520
TAFJAX
TAF
KJAX 220520Z 2206/2306 04004KT P6SM VCSH SCT020 BKN035 BKN070
     FM221600 10010KT 6SM -SHRA VCTS SCT020 BKN035CB OVC070
     FM230000 11006KT P6SM VCSH SCT020 BKN035 OVC100=

USA.gov is the U.S. government's official web portal to all federal, state and local government web resources and services.